• Join FlightAware (Why Join?)
  • Login
  • US Flag 
07:48PM EST


 

Airport Tracker/Info


-or-


 

Live Flight TrackerFlight Track Log ✈ N789EX ✈ 26-Jun-2014 ✈ KBFI - KBFI

Flight Track Log - Related Links

Times and Time Zones

All times are in EDT time to prevent confusion due to time zone crossing. See the N789EX flight status page for this flight to view local times or setup timezone preferences in your user account.

Time Position Orientation Groundspeed Altitude Reporting Facility
EDT Latitude Longitude Course Direction KTS MPH feet Rate Location/Type
07:30PM 47.5104 -122.2850 148° Southeast 172 198 1,600  Level FlightAware ADS-B
07:30PM 47.5052 -122.2800 147° Southeast 186 214 1,800 1,080 Climbing FlightAware ADS-B
07:30PM 47.4987 -122.2740 146° Southeast 207 238 1,900 900 Climbing FlightAware ADS-B
07:30PM 47.4903 -122.2650 145° Southeast 225 259 2,100 1,320 Climbing FlightAware ADS-B
07:30PM 47.4837 -122.2579 144° Southeast 233 268 2,300 1,980 Climbing FlightAware ADS-B
07:30PM 47.4770 -122.2510 144° Southeast 239 275 2,600 3,600 Climbing FlightAware ADS-B
07:31PM 47.4668 -122.2392 143° Southeast 236 272 3,500 3,960 Climbing FlightAware ADS-B
07:31PM 47.4636 -122.2360 143° Southeast 236 272 3,600 3,480 Climbing FlightAware ADS-B
07:31PM 47.4552 -122.2260 143° Southeast 235 270 4,200 3,840 Climbing FlightAware ADS-B
07:31PM 47.4490 -122.2194 142° Southeast 236 272 4,700 3,600 Climbing FlightAware ADS-B
07:31PM 47.4419 -122.2110 143° Southeast 238 274 5,100 2,700 Climbing FlightAware ADS-B
07:31PM 47.4311 -122.1992 143° Southeast 248 285 5,600 2,100 Climbing FlightAware ADS-B
07:31PM 47.4296 -122.1980 142° Southeast 250 288 5,600 960 Level FlightAware ADS-B
07:31PM 47.4260 -122.1930 140° Southeast 251 289 5,700 1,500 Climbing FlightAware ADS-B
07:31PM 47.4227 -122.1880 134° Southeast 253 291 5,800 1,680 Climbing FlightAware ADS-B
07:32PM 47.4204 -122.1840 128° Southeast 254 292 5,900 960 Climbing FlightAware ADS-B
07:32PM 47.4185 -122.1800 123° Southeast 255 293 5,900 840 Level FlightAware ADS-B
07:32PM 47.4165 -122.1740 115° Southeast 258 297 6,000 1,500 Climbing FlightAware ADS-B
07:32PM 47.4149 -122.1670 109° East 260 299 6,100 840 Climbing FlightAware ADS-B
07:32PM 47.4140 -122.1620 101° East 261 300 6,100  Level FlightAware ADS-B
07:32PM 47.4135 -122.1540 94° East 263 303 6,100  Level FlightAware ADS-B
07:32PM 47.4137 -122.1480 86° East 266 306 6,100  Level FlightAware ADS-B
07:32PM 47.4141 -122.1444 82° East 266 306 6,100  Level FlightAware ADS-B
07:32PM 47.4146 -122.1410 78° East 267 307 6,100  Level FlightAware ADS-B
07:32PM 47.4158 -122.1350 71° East 267 307 6,100 840 Level FlightAware ADS-B
07:32PM 47.4177 -122.1290 63° Northeast 268 308 6,200  Climbing FlightAware ADS-B
07:32PM 47.4204 -122.1230 55° Northeast 268 308 6,100 -900 Descending FlightAware ADS-B
07:32PM 47.4230 -122.1180 49° Northeast 269 310 6,100  Level FlightAware ADS-B
07:32PM 47.4269 -122.1130 40° Northeast 269 310 6,100  Level FlightAware ADS-B
07:32PM 47.4306 -122.1100 32° Northeast 268 308 6,100  Level FlightAware ADS-B
07:32PM 47.4348 -122.1070 26° Northeast 268 308 6,100  Level FlightAware ADS-B
07:32PM 47.4385 -122.1050 18° North 267 307 6,100  Level FlightAware ADS-B
07:33PM 47.4431 -122.1030 10° North 266 306 6,100  Level FlightAware ADS-B
07:33PM 47.4470 -122.1030 North 266 306 6,100  Level FlightAware ADS-B
07:33PM 47.4475 -122.1025 North 265 305 6,100  Level FlightAware ADS-B
07:33PM 47.4512 -122.1030 358° North 265 305 6,100  Level FlightAware ADS-B
07:33PM 47.4548 -122.1030 353° North 264 304 6,100  Level FlightAware ADS-B
07:33PM 47.4588 -122.1050 345° North 263 303 6,100  Level FlightAware ADS-B
07:33PM 47.4628 -122.1070 340° North 263 303 6,100  Level FlightAware ADS-B
07:33PM 47.4661 -122.1090 335° Northwest 261 300 6,100  Level FlightAware ADS-B
07:33PM 47.4695 -122.1110 330° Northwest 260 299 6,100  Level FlightAware ADS-B
07:33PM 47.4729 -122.1150 323° Northwest 258 297 6,100  Level FlightAware ADS-B
07:33PM 47.4756 -122.1190 318° Northwest 256 295 6,100  Level FlightAware ADS-B
07:33PM 47.4782 -122.1230 313° West 254 292 6,100  Level FlightAware ADS-B
07:33PM 47.4804 -122.1270 308° West 253 291 6,100  Level FlightAware ADS-B
07:33PM 47.4771 -122.1208 304° West 252 290 6,100  Level FlightAware ADS-B
07:33PM 47.4823 -122.1310 302° West 251 289 6,100  Level FlightAware ADS-B
07:33PM 47.4844 -122.1370 296° West 250 288 6,100  Level FlightAware ADS-B
07:33PM 47.4860 -122.1430 290° West 250 288 6,100 -420 Level FlightAware ADS-B
07:33PM 47.4895 -122.1581 289° West 248 285 6,000 -540 Descending FlightAware ADS-B
07:33PM 47.4906 -122.1630 289° West 248 285 6,000  Level FlightAware ADS-B
07:34PM 47.4967 -122.1880 290° West 248 285 6,000  Level FlightAware ADS-B
07:34PM 47.4953 -122.1818 291° West 249 287 6,000  Level FlightAware ADS-B
07:34PM 47.5027 -122.2120 291° West 250 288 6,000  Level FlightAware ADS-B
07:34PM 47.5085 -122.2350 290° West 250 288 6,000 240 Level FlightAware ADS-B
07:34PM 47.5106 -122.2426 290° West 250 288 6,100 360 Climbing FlightAware ADS-B
07:34PM 47.5145 -122.2590 290° West 250 288 6,100  Level FlightAware ADS-B
07:35PM 47.5182 -122.2740 289° West 249 287 6,100  Level FlightAware ADS-B
07:35PM 47.5196 -122.2799 290° West 249 287 6,100  Level FlightAware ADS-B
07:35PM 47.5221 -122.2910 289° West 250 288 6,100  Level FlightAware ADS-B
07:35PM 47.5269 -122.3110 289° West 250 288 6,100  Level FlightAware ADS-B
07:35PM 47.5280 -122.3154 289° West 251 289 6,100  Level FlightAware ADS-B
07:35PM 47.5327 -122.3360 289° West 252 290 6,100  Level FlightAware ADS-B
07:35PM 47.5351 -122.3460 290° West 253 291 6,100  Level FlightAware ADS-B
07:35PM 47.5356 -122.3480 291° West 254 292 6,100  Level FlightAware ADS-B
07:35PM 47.5368 -122.3520 293° West 254 292 6,100  Level FlightAware ADS-B
07:35PM 47.5384 -122.3570 298° West 255 293 6,100  Level FlightAware ADS-B
07:36PM 47.5404 -122.3620 304° West 255 293 6,100  Level FlightAware ADS-B
07:36PM 47.5433 -122.3670 311° West 256 295 6,100  Level FlightAware ADS-B
07:36PM 47.5460 -122.3710 316° Northwest 257 296 6,100  Level FlightAware ADS-B
07:36PM 47.5494 -122.3749 321° Northwest 258 297 6,100  Level FlightAware ADS-B
07:36PM 47.5579 -122.3850 322° Northwest 257 296 6,100  Level FlightAware ADS-B
07:36PM 47.5655 -122.3936 321° Northwest 258 297 6,100  Level FlightAware ADS-B
07:36PM 47.5720 -122.4010 320° Northwest 257 296 6,100  Level FlightAware ADS-B
07:36PM 47.5859 -122.4180 320° Northwest 249 287 6,100  Level FlightAware ADS-B
07:36PM 47.5859 -122.4185 320° Northwest 249 287 6,100  Level FlightAware ADS-B
07:37PM 47.5984 -122.4340 320° Northwest 243 280 6,100  Level FlightAware ADS-B
07:37PM 47.6006 -122.4367 320° Northwest 242 278 6,100  Level FlightAware ADS-B
07:37PM 47.6114 -122.4500 319° Northwest 244 281 6,100  Level FlightAware ADS-B
07:37PM 47.6198 -122.4609 319° Northwest 245 282 6,100  Level FlightAware ADS-B
07:37PM 47.6256 -122.4680 319° Northwest 245 282 6,100  Level FlightAware ADS-B
07:37PM 47.6374 -122.4833 320° Northwest 243 280 6,100  Level FlightAware ADS-B
07:37PM 47.6386 -122.4850 320° Northwest 243 280 6,100  Level FlightAware ADS-B
07:38PM 47.6519 -122.5020 320° Northwest 243 280 6,100  Level FlightAware ADS-B
07:38PM 47.6514 -122.5011 319° Northwest 243 280 6,100  Level FlightAware ADS-B
07:38PM 47.6648 -122.5180 319° Northwest 241 277 6,100  Level FlightAware ADS-B
07:38PM 47.6797 -122.5368 320° Northwest 242 278 6,100  Level FlightAware ADS-B
07:38PM 47.6913 -122.5510 321° Northwest 242 278 6,100  Level FlightAware ADS-B
07:39PM 47.7048 -122.5670 320° Northwest 243 280 6,100  Level FlightAware ADS-B
07:39PM 47.7197 -122.5860 320° Northwest 244 281 6,100  Level FlightAware ADS-B
07:39PM 47.7345 -122.6040 320° Northwest 288 331 6,100  Level FlightAware ADS-B
07:39PM 47.7499 -122.6240 320° Northwest 279 321 6,100  Level FlightAware ADS-B
07:40PM 47.7642 -122.6410 320° Northwest 260 299 6,100  Level FlightAware ADS-B
07:40PM 47.7779 -122.6580 321° Northwest 241 277 6,100  Level FlightAware ADS-B
07:40PM 47.7923 -122.6750 321° Northwest 234 269 6,100  Level FlightAware ADS-B
07:41PM 47.8121 -122.6990 321° Northwest 245 282 6,100  Level FlightAware ADS-B
07:41PM 47.8250 -122.7150 321° Northwest 242 278 6,100  Level FlightAware ADS-B
07:41PM 47.8296 -122.7200 322° Northwest 242 278 6,100  Level FlightAware ADS-B
07:41PM 47.8332 -122.7240 326° Northwest 242 278 6,100  Level FlightAware ADS-B
07:41PM 47.8376 -122.7270 333° Northwest 244 281 6,100  Level FlightAware ADS-B
07:41PM 47.8414 -122.7300 339° North 245 282 6,100  Level FlightAware ADS-B
07:41PM 47.8455 -122.7320 344° North 245 282 6,100  Level FlightAware ADS-B
07:41PM 47.8512 -122.7340 347° North 246 283 6,100  Level FlightAware ADS-B
07:42PM 47.8684 -122.7380 350° North 250 288 6,100  Level FlightAware ADS-B
07:42PM 47.8856 -122.7430 350° North 254 292 6,100  Level FlightAware ADS-B
07:42PM 47.9012 -122.7470 350° North 254 292 6,100  Level FlightAware ADS-B
07:42PM 47.9060 -122.7486 350° North 254 292 6,100  Level FlightAware ADS-B (CYWH)
07:42PM 47.9190 -122.7520 350° North 249 287 6,100  Level FlightAware ADS-B
07:43PM 47.9360 -122.7570 350° North 245 282 6,100  Level FlightAware ADS-B
07:43PM 47.9367 -122.7568 350° North 245 282 6,100  Level FlightAware ADS-B (CYVR)
07:43PM 47.9529 -122.7610 349° North 241 277 6,100  Level FlightAware ADS-B
07:43PM 47.9636 -122.7640 349° North 240 276 6,100  Level FlightAware ADS-B
07:43PM 47.9629 -122.7640 349° North 240 276 6,100  Level FlightAware ADS-B (CYWH)
07:43PM 47.9802 -122.7690 349° North 242 278 6,100  Level FlightAware ADS-B
07:43PM 47.9831 -122.7697 349° North 243 280 6,100  Level FlightAware ADS-B (CYVR)
07:44PM 47.9975 -122.7740 349° North 246 283 6,100  Level FlightAware ADS-B
07:44PM 48.0078 -122.7766 350° North 245 282 6,100  Level FlightAware ADS-B (CYVR)
07:44PM 48.0151 -122.7790 350° North 241 277 6,100  Level FlightAware ADS-B
07:44PM 48.0308 -122.7830 350° North 226 260 6,100  Level FlightAware ADS-B
07:44PM 48.0221 -122.7805 350° North 232 267 6,100  Level FlightAware ADS-B (CYWH)
07:44PM 48.0454 -122.7870 350° North 251 289 6,100  Level FlightAware ADS-B
07:44PM 48.0488 -122.7875 356° North 249 287 6,100  Level FlightAware ADS-B (CYWH)
07:44PM 48.0549 -122.7870 North 247 284 6,100  Level FlightAware ADS-B
07:45PM 48.0627 -122.7850 12° North 243 280 6,100  Level FlightAware ADS-B
07:45PM 48.0671 -122.7830 17° North 239 275 6,100  Level FlightAware ADS-B
07:45PM 48.0728 -122.7800 24° Northeast 235 270 6,100  Level FlightAware ADS-B
07:45PM 48.0766 -122.7770 30° Northeast 237 273 6,100  Level FlightAware ADS-B
07:45PM 48.0817 -122.7710 37° Northeast 241 277 6,100  Level FlightAware ADS-B
07:45PM 48.0843 -122.7680 40° Northeast 243 280 6,100  Level FlightAware ADS-B
07:45PM 48.0883 -122.7624 45° Northeast 246 283 6,100  Level FlightAware ADS-B (CYWH)
07:45PM 48.0894 -122.7610 45° Northeast 246 283 6,100  Level FlightAware ADS-B
07:45PM 48.1013 -122.7410 49° Northeast 246 283 6,100  Level FlightAware ADS-B
07:45PM 48.1050 -122.7342 50° Northeast 245 282 6,100  Level FlightAware ADS-B (CYVR)
07:45PM 48.1118 -122.7220 50° Northeast 248 285 6,100  Level FlightAware ADS-B
07:46PM 48.1103 -122.7249 50° Northeast 252 290 6,100  Level FlightAware ADS-B (CYVR)
07:46PM 48.1258 -122.6973 50° Northeast 251 289 6,100  Level FlightAware ADS-B (CYVR)
07:46PM 48.1330 -122.6850 50° Northeast 251 289 6,100  Level FlightAware ADS-B
07:46PM 48.1410 -122.6707 49° Northeast 252 290 6,100  Level FlightAware ADS-B (CYWH)
07:47PM 48.1642 -122.6314 48° Northeast 252 290 6,100  Level FlightAware ADS-B (CYWH)
07:47PM 48.1700 -122.6220 48° Northeast 253 291 6,100  Level FlightAware ADS-B
07:47PM 48.1791 -122.6072 47° Northeast 253 291 6,100  Level FlightAware ADS-B (CYWH)
07:47PM 48.1967 -122.5790 48° Northeast 253 291 6,100 -180 Level FlightAware ADS-B (CYWH)
07:48PM 48.2128 -122.5526 48° Northeast 253 291 6,000 -240 Descending FlightAware ADS-B (CYVR)
07:48PM 48.2155 -122.5478 75° East 249 287 6,000 -300 Level FlightAware ADS-B (CYWH)
07:48PM 48.2195 -122.5247 103° East 241 277 5,900 -300 Descending FlightAware ADS-B (CYWH)
07:48PM 48.2149 -122.5092 142° Southeast 229 264 5,900 240 Level FlightAware ADS-B (CYWH)
07:48PM 48.2032 -122.4971 154° Southeast 226 260 6,000  Climbing FlightAware ADS-B (CYWH)
07:49PM 48.1842 -122.4840 159° South 227 261 5,900  Descending FlightAware ADS-B (CYWH)
07:49PM 48.1575 -122.4789 214° Southwest 226 260 6,000 120 Climbing FlightAware ADS-B (CYWH)
07:49PM 48.1422 -122.4980 223° Southwest 229 264 6,000  Level FlightAware ADS-B (CYVR)
07:50PM 48.1243 -122.5209 214° Southwest 229 264 6,000  Level FlightAware ADS-B (CYWH)
07:50PM 48.1071 -122.5444 228° Southwest 237 273 6,000  Level FlightAware ADS-B (CYWH)
07:51PM 48.0944 -122.5677 232° Southwest 248 285 6,000 420 Level FlightAware ADS-B (CYWH)
07:51PM 48.0787 -122.5998 235° Southwest 251 289 6,300 900 Climbing FlightAware ADS-B (CYWH)
07:51PM 48.0652 -122.6271 231° Southwest 254 292 6,600 600 Climbing FlightAware ADS-B (CYWH)
07:51PM 48.0589 -122.6370 226° Southwest 246 283 6,600  Level FlightAware ADS-B
07:51PM 48.0537 -122.6440 219° Southwest 240 276 6,600  Level FlightAware ADS-B
07:52PM 48.0490 -122.6490 214° Southwest 239 275 6,600 -600 Level FlightAware ADS-B
07:52PM 48.0443 -122.6540 209° Southwest 240 276 6,500 -780 Descending FlightAware ADS-B
07:52PM 48.0409 -122.6560 207° Southwest 241 277 6,500 360 Level FlightAware ADS-B
07:52PM 48.0285 -122.6648 205° Southwest 243 280 6,600 360 Climbing FlightAware ADS-B
07:52PM 48.0262 -122.6660 205° Southwest 242 278 6,600 -360 Level FlightAware ADS-B
07:52PM 48.0109 -122.6770 204° Southwest 235 270 6,500 -360 Descending FlightAware ADS-B
07:52PM 48.0248 -122.6674 205° Southwest 234 269 6,500  Level FlightAware ADS-B (CYWH)
07:52PM 47.9949 -122.6880 206° Southwest 240 276 6,500  Level FlightAware ADS-B
07:53PM 47.9815 -122.6980 207° Southwest 230 265 6,500  Level FlightAware ADS-B
07:53PM 47.9721 -122.7050 208° Southwest 229 264 6,500  Level FlightAware ADS-B
07:53PM 47.9691 -122.7073 209° Southwest 230 265 6,500 -600 Level FlightAware ADS-B
07:53PM 47.9619 -122.7130 209° Southwest 230 265 6,400 -360 Descending FlightAware ADS-B
07:53PM 47.9593 -122.7155 212° Southwest 230 265 6,400  Level FlightAware ADS-B
07:53PM 47.9494 -122.7250 212° Southwest 229 264 6,400  Level FlightAware ADS-B
07:53PM 47.9398 -122.7330 212° Southwest 219 252 6,400 480 Level FlightAware ADS-B
07:53PM 47.9398 -122.7334 212° Southwest 222 255 6,500 420 Climbing FlightAware ADS-B (CYWH)
07:54PM 47.9269 -122.7450 213° Southwest 229 264 6,500  Level FlightAware ADS-B
07:54PM 47.9375 -122.7355 213° Southwest 231 266 6,500  Level FlightAware ADS-B
07:54PM 47.9190 -122.7530 213° Southwest 232 267 6,500 300 Level FlightAware ADS-B
07:54PM 47.9054 -122.7660 214° Southwest 232 267 6,600 300 Climbing FlightAware ADS-B
07:54PM 47.9187 -122.7533 213° Southwest 231 266 6,600 -420 Level FlightAware ADS-B (CYVR)
07:54PM 47.8921 -122.7790 214° Southwest 227 261 6,500 -420 Descending FlightAware ADS-B
07:54PM 47.8911 -122.7805 214° Southwest 230 265 6,500  Level FlightAware ADS-B (CYWH)
07:54PM 47.8863 -122.7850 213° Southwest 230 265 6,500  Level FlightAware ADS-B
07:55PM 47.8788 -122.7920 212° Southwest 224 258 6,500  Level FlightAware ADS-B
07:55PM 47.8798 -122.7911 213° Southwest 221 254 6,500  Level FlightAware ADS-B (CYVR)
07:55PM 47.8714 -122.7990 212° Southwest 222 255 6,500  Level FlightAware ADS-B
07:55PM 47.8661 -122.8040 214° Southwest 223 257 6,500  Level FlightAware ADS-B
07:55PM 47.8574 -122.8131 215° Southwest 224 258 6,500 -420 Level FlightAware ADS-B (CYVR)
07:55PM 47.8528 -122.8180 215° Southwest 222 255 6,400 -360 Descending FlightAware ADS-B
07:55PM 47.8431 -122.8280 216° Southwest 228 262 6,400  Level FlightAware ADS-B
07:55PM 47.8385 -122.8330 216° Southwest 227 261 6,400 360 Level FlightAware ADS-B (CYWH)
07:55PM 47.8298 -122.8420 215° Southwest 227 261 6,500 540 Climbing FlightAware ADS-B
07:56PM 47.8196 -122.8526 215° Southwest 227 261 6,600 300 Climbing FlightAware ADS-B (CYWH)
07:56PM 47.8136 -122.8590 214° Southwest 227 261 6,600  Level FlightAware ADS-B
07:56PM 47.8032 -122.8689 213° Southwest 219 252 6,600  Level FlightAware ADS-B (CYWH)
07:56PM 47.8024 -122.8700 213° Southwest 219 252 6,600  Level FlightAware ADS-B
07:56PM 47.7940 -122.8780 212° Southwest 234 269 6,600 -420 Level FlightAware ADS-B
07:56PM 47.7879 -122.8840 220° Southwest 233 268 6,500 -900 Descending FlightAware ADS-B
07:56PM 47.8032 -122.8689 222° Southwest 232 267 6,500  Level FlightAware ADS-B (CYWH)
07:56PM 47.7847 -122.8890 222° Southwest 229 264 6,500  Level FlightAware ADS-B
07:56PM 47.7803 -122.8930 210° Southwest 232 267 6,500  Level FlightAware ADS-B
07:56PM 47.7803 -122.8929 208° Southwest 233 268 6,500  Level FlightAware ADS-B (CYWH)
07:57PM 47.7758 -122.8960 203° Southwest 236 272 6,500  Level FlightAware ADS-B
07:57PM 47.7723 -122.8980 203° Southwest 241 277 6,500  Level FlightAware ADS-B
07:57PM 47.7687 -122.9010 210° Southwest 243 280 6,500  Level FlightAware ADS-B
07:57PM 47.7654 -122.9050 222° Southwest 240 276 6,500  Level FlightAware ADS-B
07:57PM 47.7632 -122.9090 231° Southwest 238 274 6,500 -1,200 Level FlightAware ADS-B
07:57PM 47.7666 -122.9034 238° Southwest 236 272 6,400 -1,200 Descending FlightAware ADS-B (CYWH)
07:57PM 47.7606 -122.9150 236° Southwest 233 268 6,400  Level FlightAware ADS-B
07:57PM 47.7584 -122.9190 226° Southwest 230 265 6,400  Level FlightAware ADS-B
07:57PM 47.7553 -122.9220 215° Southwest 227 261 6,400  Level FlightAware ADS-B
07:57PM 47.7553 -122.9220 208° Southwest 226 260 6,400  Level FlightAware ADS-B (CYWH)
07:57PM 47.7521 -122.9240 203° Southwest 226 260 6,400  Level FlightAware ADS-B
07:57PM 47.7484 -122.9260 198° South 223 257 6,400  Level FlightAware ADS-B
07:57PM 47.7413 -122.9300 199° South 227 261 6,400  Level FlightAware ADS-B
07:57PM 47.7375 -122.9320 203° Southwest 232 267 6,400  Level FlightAware ADS-B
07:57PM 47.7339 -122.9350 212° Southwest 238 274 6,400  Level FlightAware ADS-B
07:57PM 47.7309 -122.9380 218° Southwest 240 276 6,400 360 Level FlightAware ADS-B
07:58PM 47.7204 -122.9510 218° Southwest 247 284 6,500 480 Climbing FlightAware ADS-B
07:58PM 47.7079 -122.9641 216° Southwest 240 276 6,600 360 Climbing FlightAware ADS-B (CYVR)
07:58PM 47.7067 -122.9650 216° Southwest 239 275 6,600  Level FlightAware ADS-B
07:58PM 47.6985 -122.9740 216° Southwest 242 278 6,600  Level FlightAware ADS-B
07:58PM 47.6921 -122.9810 215° Southwest 242 278 6,600  Level FlightAware ADS-B
07:58PM 47.6792 -122.9940 214° Southwest 240 276 6,600  Level FlightAware ADS-B
07:58PM 47.6710 -123.0020 213° Southwest 238 274 6,600  Level FlightAware ADS-B
07:59PM 47.6601 -123.0130 214° Southwest 240 276 6,600  Level FlightAware ADS-B
07:59PM 47.6472 -123.0260 213° Southwest 240 276 6,600 180 Level FlightAware ADS-B
07:59PM 47.6331 -123.0390 213° Southwest 241 277 6,700 180 Climbing FlightAware ADS-B
07:59PM 47.6230 -123.0490 213° Southwest 234 269 6,700  Level FlightAware ADS-B
08:00PM 47.6140 -123.0580 213° Southwest 235 270 6,700 -300 Level FlightAware ADS-B
08:00PM 47.6039 -123.0670 212° Southwest 231 266 6,600 -480 Descending FlightAware ADS-B
08:00PM 47.5897 -123.0800 211° Southwest 241 277 6,500 -240 Descending FlightAware ADS-B
08:00PM 47.5802 -123.0880 210° Southwest 241 277 6,500  Level FlightAware ADS-B
08:00PM 47.5704 -123.0960 207° Southwest 247 284 6,500  Level FlightAware ADS-B
08:00PM 47.5592 -123.1040 206° Southwest 237 273 6,500 240 Level FlightAware ADS-B
08:01PM 47.5486 -123.1120 207° Southwest 231 266 6,600 -240 Climbing FlightAware ADS-B
08:01PM 47.5347 -123.1230 211° Southwest 232 267 6,400 -780 Descending FlightAware ADS-B
08:01PM 47.5262 -123.1310 210° Southwest 234 269 6,300  Descending FlightAware ADS-B
08:01PM 47.5189 -123.1370 211° Southwest 231 266 6,400 300 Climbing FlightAware ADS-B
08:01PM 47.5103 -123.1450 212° Southwest 231 266 6,400  Level FlightAware ADS-B
08:02PM 47.4999 -123.1530 207° Southwest 220 253 6,400  Level FlightAware ADS-B
08:02PM 47.4911 -123.1600 206° Southwest 236 272 6,400 -480 Level FlightAware ADS-B
08:02PM 47.4860 -123.1630 203° Southwest 243 280 6,300 -600 Descending FlightAware ADS-B
08:02PM 47.4808 -123.1660 197° South 237 273 6,300 360 Level FlightAware ADS-B
08:02PM 47.4700 -123.1700 195° South 223 257 6,400 480 Climbing FlightAware ADS-B
08:02PM 47.4576 -123.1750 195° South 232 267 6,500 420 Climbing FlightAware ADS-B
08:02PM 47.4412 -123.1810 195° South 232 267 6,600 240 Climbing FlightAware ADS-B
08:03PM 47.4313 -123.1850 195° South 233 268 6,600  Level FlightAware ADS-B
08:03PM 47.4274 -123.1870 200° South 237 273 6,600 -600 Level FlightAware ADS-B
08:03PM 47.4201 -123.1920 202° Southwest 238 274 6,500 -540 Descending FlightAware ADS-B
08:03PM 47.4150 -123.1950 197° South 233 268 6,500  Level FlightAware ADS-B
08:03PM 47.4116 -123.1960 193° South 231 266 6,500 -1,020 Level FlightAware ADS-B
08:03PM 47.4085 -123.1960 190° South 228 262 6,400 -900 Descending FlightAware ADS-B
08:03PM 47.4047 -123.1980 187° South 225 259 6,400 720 Level FlightAware ADS-B
08:03PM 47.4002 -123.1980 185° South 222 255 6,500 660 Climbing FlightAware ADS-B
08:03PM 47.3949 -123.1980 186° South 234 269 6,500  Level FlightAware ADS-B
08:03PM 47.3912 -123.1990 193° South 246 283 6,500  Level FlightAware ADS-B
08:03PM 47.3865 -123.2010 200° South 252 290 6,500 -720 Level FlightAware ADS-B
08:03PM 47.3808 -123.2040 205° Southwest 254 292 6,400 -720 Descending FlightAware ADS-B
08:04PM 47.3766 -123.2080 202° Southwest 255 293 6,400  Level FlightAware ADS-B
08:04PM 47.3726 -123.2100 191° South 254 292 6,400  Level FlightAware ADS-B
08:04PM 47.3690 -123.2120 184° South 252 290 6,400  Level FlightAware ADS-B
08:04PM 47.3618 -123.2100 184° South 249 287 6,400  Level FlightAware ADS-B
08:04PM 47.3579 -123.2110 194° South 248 285 6,400  Level FlightAware ADS-B
08:04PM 47.3545 -123.2110 207° Southwest 246 283 6,400 600 Level FlightAware ADS-B
08:04PM 47.3489 -123.2200 208° Southwest 237 273 6,500 600 Climbing FlightAware ADS-B
08:04PM 47.3460 -123.2220 201° Southwest 233 268 6,500  Level FlightAware ADS-B
08:04PM 47.3423 -123.2220 191° South 229 264 6,500 720 Level FlightAware ADS-B
08:04PM 47.3373 -123.2230 187° South 231 266 6,600  Climbing FlightAware ADS-B
08:04PM 47.3339 -123.2240 195° South 231 266 6,500  Descending FlightAware ADS-B
08:04PM 47.3300 -123.2270 208° Southwest 233 268 6,600  Climbing FlightAware ADS-B
08:04PM 47.3264 -123.2300 209° Southwest 235 270 6,500  Descending FlightAware ADS-B
08:04PM 47.3235 -123.2320 202° Southwest 236 272 6,600 960 Climbing FlightAware ADS-B
08:04PM 47.3196 -123.2330 191° South 238 274 6,600 -780 Level FlightAware ADS-B
08:04PM 47.3147 -123.2340 184° South 243 280 6,500 -780 Descending FlightAware ADS-B
08:05PM 47.3109 -123.2350 194° South 244 281 6,500  Level FlightAware ADS-B
08:05PM 47.3077 -123.2370 207° Southwest 245 282 6,500  Level FlightAware ADS-B
08:05PM 47.3025 -123.2430 214° Southwest 247 284 6,500  Level FlightAware ADS-B
08:05PM 47.2994 -123.2450 204° Southwest 245 282 6,500 -1,020 Level FlightAware ADS-B
08:05PM 47.2961 -123.2460 194° South 243 280 6,400 -900 Descending FlightAware ADS-B
08:05PM 47.2919 -123.2470 185° South 241 277 6,400  Level FlightAware ADS-B
08:05PM 47.2866 -123.2480 190° South 241 277 6,400  Level FlightAware ADS-B
08:05PM 47.2833 -123.2500 206° Southwest 244 281 6,400  Level FlightAware ADS-B
08:05PM 47.2797 -123.2520 216° Southwest 245 282 6,400  Level FlightAware ADS-B
08:05PM 47.2760 -123.2590 221° Southwest 249 287 6,400  Level FlightAware ADS-B
08:05PM 47.2731 -123.2610 211° Southwest 250 288 6,400 -1,020 Level FlightAware ADS-B
08:05PM 47.2698 -123.2630 198° South 252 290 6,300 -1,020 Descending FlightAware ADS-B
08:05PM 47.2659 -123.2640 188° South 252 290 6,300  Level FlightAware ADS-B
08:05PM 47.2600 -123.2650 185° South 246 283 6,300  Level FlightAware ADS-B
08:05PM 47.2568 -123.2660 198° South 241 277 6,300  Level FlightAware ADS-B
08:05PM 47.2542 -123.2690 212° Southwest 237 273 6,300  Level FlightAware ADS-B
08:06PM 47.2515 -123.2720 224° Southwest 233 268 6,300  Level FlightAware ADS-B
08:06PM 47.2489 -123.2760 224° Southwest 230 265 6,300 720 Level FlightAware ADS-B
08:06PM 47.2449 -123.2800 213° Southwest 238 274 6,400 660 Climbing FlightAware ADS-B
08:06PM 47.2408 -123.2840 207° Southwest 249 287 6,400  Level FlightAware ADS-B
08:06PM 47.2366 -123.2860 202° Southwest 256 295 6,400 720 Level FlightAware ADS-B
08:06PM 47.2320 -123.2880 198° South 260 299 6,500 420 Climbing FlightAware ADS-B
08:06PM 47.2220 -123.2930 194° South 252 290 6,500  Level FlightAware ADS-B
08:06PM 47.2174 -123.2940 190° South 250 288 6,500  Level FlightAware ADS-B
08:06PM 47.2138 -123.2940 179° South 246 283 6,500  Level FlightAware ADS-B
08:06PM 47.2093 -123.2930 166° South 245 282 6,500  Level FlightAware ADS-B
08:06PM 47.2062 -123.2910 158° South 243 280 6,500  Level FlightAware ADS-B
08:06PM 47.2028 -123.2890 152° Southeast 242 278 6,500  Level FlightAware ADS-B
08:06PM 47.1958 -123.2830 152° Southeast 237 273 6,500  Level FlightAware ADS-B
08:06PM 47.1924 -123.2810 159° South 231 266 6,500  Level FlightAware ADS-B
08:07PM 47.1876 -123.2790 165° South 226 260 6,500  Level FlightAware ADS-B
08:07PM 47.1844 -123.2780 165° South 225 259 6,500  Level FlightAware ADS-B
08:07PM 47.1812 -123.2760 159° South 226 260 6,500 -1,020 Level FlightAware ADS-B
08:07PM 47.1785 -123.2740 149° Southeast 229 264 6,400 -1,020 Descending FlightAware ADS-B
08:07PM 47.1758 -123.2700 136° Southeast 235 270 6,400  Level FlightAware ADS-B
08:07PM 47.1738 -123.2650 123° Southeast 241 277 6,400  Level FlightAware ADS-B
08:07PM 47.1725 -123.2600 105° East 249 287 6,400  Level FlightAware ADS-B
08:07PM 47.1723 -123.2550 92° East 255 293 6,400  Level FlightAware ADS-B
08:07PM 47.1731 -123.2490 80° East 260 299 6,400  Level FlightAware ADS-B
08:07PM 47.1745 -123.2430 65° Northeast 264 304 6,400  Level FlightAware ADS-B
08:07PM 47.1767 -123.2380 54° Northeast 267 307 6,400  Level FlightAware ADS-B
08:07PM 47.1798 -123.2340 44° Northeast 269 310 6,400  Level FlightAware ADS-B
08:07PM 47.1832 -123.2310 32° Northeast 270 311 6,400  Level FlightAware ADS-B
08:07PM 47.1877 -123.2290 18° North 272 313 6,400  Level FlightAware ADS-B
08:07PM 47.1919 -123.2280 North 272 313 6,400  Level FlightAware ADS-B
08:07PM 47.1959 -123.2280 358° North 273 314 6,400 960 Level FlightAware ADS-B
08:07PM 47.1997 -123.2280 353° North 274 315 6,500 300 Climbing FlightAware ADS-B
08:08PM 47.2189 -123.2320 352° North 268 308 6,500  Level FlightAware ADS-B
08:08PM 47.2258 -123.2340 351° North 271 312 6,500  Level FlightAware ADS-B
08:08PM 47.2303 -123.2350 346° North 268 308 6,500  Level FlightAware ADS-B
08:08PM 47.2338 -123.2370 342° North 265 305 6,500 960 Level FlightAware ADS-B
08:08PM 47.2374 -123.2390 337° Northwest 262 302 6,600 960 Climbing FlightAware ADS-B
08:08PM 47.2407 -123.2410 332° Northwest 265 305 6,600 -900 Level FlightAware ADS-B
08:08PM 47.2447 -123.2450 326° Northwest 270 311 6,500 -900 Descending FlightAware ADS-B
08:08PM 47.2477 -123.2480 321° Northwest 273 314 6,500  Level FlightAware ADS-B
08:08PM 47.2509 -123.2530 317° Northwest 276 318 6,500  Level FlightAware ADS-B
08:08PM 47.2545 -123.2580 313° West 279 321 6,500  Level FlightAware ADS-B
08:08PM 47.2576 -123.2640 308° West 282 325 6,500  Level FlightAware ADS-B
08:08PM 47.2623 -123.2730 305° West 279 321 6,500  Level FlightAware ADS-B
08:09PM 47.2731 -123.2970 303° West 271 312 6,500 -240 Level FlightAware ADS-B
08:09PM 47.2804 -123.3130 305° West 272 313 6,400 -420 Descending FlightAware ADS-B
08:09PM 47.2839 -123.3200 308° West 274 315 6,400 -720 Level FlightAware ADS-B
08:09PM 47.2874 -123.3260 314° West 277 319 6,300 -900 Descending FlightAware ADS-B
08:09PM 47.2902 -123.3290 319° Northwest 278 320 6,300  Level FlightAware ADS-B
08:09PM 47.2937 -123.3330 323° Northwest 280 322 6,300  Level FlightAware ADS-B
08:09PM 47.2981 -123.3380 328° Northwest 281 323 6,300  Level FlightAware ADS-B
08:09PM 47.3026 -123.3410 332° Northwest 282 325 6,300 -780 Level FlightAware ADS-B
08:09PM 47.3173 -123.3520 333° Northwest 283 326 6,100 -900 Descending FlightAware ADS-B
08:10PM 47.3342 -123.3650 334° Northwest 282 325 5,900 -840 Descending FlightAware ADS-B
08:10PM 47.3520 -123.3770 334° Northwest 281 323 5,700 -840 Descending FlightAware ADS-B
08:10PM 47.3688 -123.3900 334° Northwest 280 322 5,500 -720 Descending FlightAware ADS-B
08:10PM 47.3833 -123.4000 335° Northwest 281 323 5,400 -540 Descending FlightAware ADS-B
08:11PM 47.3969 -123.4090 335° Northwest 278 320 5,300 -540 Descending FlightAware ADS-B
08:11PM 47.4111 -123.4190 336° Northwest 276 318 5,200  Descending FlightAware ADS-B
08:11PM 47.4284 -123.4300 336° Northwest 272 313 5,300 240 Climbing FlightAware ADS-B
08:11PM 47.4351 -123.4340 338° Northwest 272 313 5,300 660 Level FlightAware ADS-B
08:11PM 47.4391 -123.4370 340° North 272 313 5,400 1,980 Climbing FlightAware ADS-B
08:11PM 47.4430 -123.4380 344° North 273 314 5,500 1,980 Climbing FlightAware ADS-B
08:11PM 47.4470 -123.4400 348° North 275 316 5,600 2,220 Climbing FlightAware ADS-B
08:11PM 47.4523 -123.4410 354° North 279 321 5,800 1,320 Climbing FlightAware ADS-B
08:11PM 47.4575 -123.4410 357° North 280 322 5,800 360 Level FlightAware ADS-B
08:12PM 47.4723 -123.4420 359° North 281 323 5,900 180 Climbing FlightAware ADS-B
08:12PM 47.4923 -123.4420 359° North 288 331 5,900  Level FlightAware ADS-B
08:12PM 47.5091 -123.4430 358° North 286 329 5,900  Level FlightAware ADS-B
08:12PM 47.5222 -123.4440 357° North 283 326 5,900 240 Level FlightAware ADS-B
08:12PM 47.5275 -123.4444 94° East 289 333 6,000 1,800 Climbing Seattle Center
08:12PM 47.5388 -123.4460 354° North 281 323 6,300 4,980 Climbing FlightAware ADS-B
08:13PM 47.5443 -123.4470 352° North 281 323 6,500 2,640 Climbing FlightAware ADS-B
08:13PM 47.5504 -123.4480 348° North 281 323 6,700 1,980 Climbing FlightAware ADS-B
08:13PM 47.5562 -123.4510 345° North 282 325 6,800 1,320 Climbing FlightAware ADS-B
08:13PM 47.5617 -123.4530 340° North 284 327 6,900 1,800 Climbing FlightAware ADS-B
08:13PM 47.5719 -123.4600 335° Northwest 286 329 7,200 1,560 Climbing FlightAware ADS-B
08:13PM 47.5798 -123.4660 331° Northwest 287 330 7,300 540 Climbing FlightAware ADS-B
08:13PM 47.5843 -123.4700 328° Northwest 288 331 7,300 180 Level FlightAware ADS-B
08:13PM 47.6058 -123.4917 338° Northwest 290 334 7,400 120 Climbing Seattle Center
08:14PM 47.6392 -123.5736 301° West 294 338 7,500 -180 Climbing Seattle Center
08:18PM 47.5493 -122.6875 94° East  Level Estimated
08:22PM 47.9908 -124.0827 17° North 541 623 6,100  Level FlightAware ADS-B (KPFC)
08:24PM 48.1556 -123.9138 58° Northeast 283 326 5,200 -840 Descending FlightAware ADS-B (CYWH)
08:26PM 48.1649 -123.6701 108° East 299 344 2,300 -1,260 Descending FlightAware ADS-B (CYWH)
08:27PM 48.1568 -123.6265 95° East 290 334 1,700 -240 Descending FlightAware ADS-B (CYWH)
08:28PM 48.1426 -123.4703 91° East 275 316 1,900 120 Climbing FlightAware ADS-B (CYWH)
08:28PM 48.1421 -123.4283 92° East 301 346 1,900 600 Level FlightAware ADS-B (CYWH)
08:29PM 48.1385 -123.3892 125° Southeast 272 313 2,300 2,580 Climbing FlightAware ADS-B (CYWH)
08:29PM 48.1276 -123.3770 151° Southeast 253 291 3,200 1,740 Climbing FlightAware ADS-B (CYWH)
08:29PM 48.1157 -123.3660 147° Southeast 240 276 3,200  Level FlightAware ADS-B (CYWH)
08:30PM 48.0963 -123.3473 151° Southeast 252 290 3,200  Level FlightAware ADS-B (CYVR)
08:30PM 48.0818 -123.3340 149° Southeast 232 267 3,200 120 Level FlightAware ADS-B (CYWH)
08:30PM 48.0938 -123.3449 150° Southeast 235 270 3,300 360 Climbing FlightAware ADS-B (CYVR)
08:31PM 48.0381 -123.2953 148° Southeast 234 269 3,500 840 Climbing FlightAware ADS-B (CYVR)
08:31PM 48.0302 -123.2869 138° Southeast 230 265 3,900 1,140 Climbing FlightAware ADS-B (CYWH)
08:31PM 48.0062 -123.2542 136° Southeast 231 266 4,300 960 Climbing FlightAware ADS-B (CYWH)
08:32PM 47.9890 -123.2288 135° Southeast 238 274 4,800 900 Climbing FlightAware ADS-B (CYWH)
08:32PM 47.9724 -123.2025 114° Southeast 242 278 5,100 420 Climbing FlightAware ADS-B (CYWH)
08:32PM 47.9585 -123.1576 113° Southeast 244 281 5,100  Level FlightAware ADS-B (CYWH)
08:33PM 47.9445 -123.1089 113° Southeast 240 276 5,100  Level FlightAware ADS-B (CYWH)
08:33PM 47.9322 -123.0672 114° Southeast 273 314 5,100 180 Level FlightAware ADS-B (CYWH)
08:34PM 47.9286 -123.0550 114° Southeast 292 336 5,200 900 Climbing FlightAware ADS-B
08:34PM 47.9203 -123.0270 114° Southeast 286 329 5,400 660 Climbing FlightAware ADS-B
08:34PM 47.9193 -123.0242 113° Southeast 280 322 5,400  Level FlightAware ADS-B (CYWH)
08:34PM 47.9128 -123.0020 113° Southeast 254 292 5,400 240 Level FlightAware ADS-B
08:34PM 47.9130 -123.0024 112° Southeast 239 275 5,500 300 Climbing FlightAware ADS-B (CYWH)
08:34PM 47.9054 -122.9750 112° Southeast 241 277 5,500  Level FlightAware ADS-B
08:34PM 47.9067 -122.9794 112° Southeast 241 277 5,500  Level FlightAware ADS-B (CYVR)
08:35PM 47.9004 -122.9570 113° Southeast 242 278 5,500  Level FlightAware ADS-B
08:35PM 47.8987 -122.9520 120° Southeast 239 275 5,500  Level FlightAware ADS-B
08:35PM 47.8961 -122.9470 130° Southeast 233 268 5,500  Level FlightAware ADS-B
08:35PM 47.8932 -122.9430 138° Southeast 231 266 5,500 -360 Level FlightAware ADS-B
08:35PM 47.8795 -122.9280 143° Southeast 238 274 5,400 -300 Descending FlightAware ADS-B
08:35PM 47.8780 -122.9258 143° Southeast 237 273 5,400  Level FlightAware ADS-B (CYWH)
08:35PM 47.8664 -122.9130 143° Southeast 236 272 5,400  Level FlightAware ADS-B
08:35PM 47.8602 -122.9060 143° Southeast 238 274 5,400 -420 Level FlightAware ADS-B (CYWH)
08:35PM 47.8524 -122.8970 143° Southeast 238 274 5,300 -300 Descending FlightAware ADS-B
08:36PM 47.8431 -122.8870 142° Southeast 236 272 5,300  Level FlightAware ADS-B
08:36PM 47.8364 -122.8790 141° Southeast 238 274 5,300 -300 Level FlightAware ADS-B
08:36PM 47.8247 -122.8640 140° Southeast 239 275 5,200 -360 Descending FlightAware ADS-B
08:36PM 47.8217 -122.8600 145° Southeast 237 273 5,200  Level FlightAware ADS-B
08:36PM 47.8174 -122.8570 157° South 233 268 5,200  Level FlightAware ADS-B
08:36PM 47.8136 -122.8560 169° South 230 265 5,200  Level FlightAware ADS-B
08:36PM 47.8107 -122.8560 179° South 229 264 5,200  Level FlightAware ADS-B
08:36PM 47.8071 -122.8570 189° South 227 261 5,200 840 Level FlightAware ADS-B
08:36PM 47.8038 -122.8580 200° South 226 260 5,300  Climbing FlightAware ADS-B
08:36PM 47.8007 -122.8610 213° Southwest 229 264 5,200 -1,020 Descending FlightAware ADS-B
08:36PM 47.7982 -122.8640 219° Southwest 231 266 5,200  Level FlightAware ADS-B
08:37PM 47.7982 -122.8640 220° Southwest 231 266 5,200  Level FlightAware ADS-B (CYWH)
08:37PM 47.7908 -122.8730 221° Southwest 230 265 5,200  Level FlightAware ADS-B
08:37PM 47.7863 -122.8790 223° Southwest 229 264 5,200  Level FlightAware ADS-B
08:37PM 47.7825 -122.8850 226° Southwest 229 264 5,200  Level FlightAware ADS-B
08:37PM 47.7715 -122.9020 227° Southwest 229 264 5,200  Level FlightAware ADS-B
08:37PM 47.7624 -122.9170 228° Southwest 229 264 5,200  Level FlightAware ADS-B
08:37PM 47.7536 -122.9320 229° Southwest 227 261 5,200  Level FlightAware ADS-B
08:38PM 47.7431 -122.9490 229° Southwest 227 261 5,200  Level FlightAware ADS-B
08:38PM 47.7334 -122.9660 230° Southwest 229 264 5,200 -240 Level FlightAware ADS-B
08:38PM 47.7227 -122.9850 229° Southwest 231 266 5,100 -240 Descending FlightAware ADS-B
08:38PM 47.7122 -123.0030 229° Southwest 226 260 5,100  Level FlightAware ADS-B
08:39PM 47.7061 -123.0130 228° Southwest 226 260 5,100  Level FlightAware ADS-B
08:39PM 47.7036 -123.0170 223° Southwest 224 258 5,100  Level FlightAware ADS-B
08:39PM 47.7008 -123.0190 211° Southwest 225 259 5,100  Level FlightAware ADS-B
08:39PM 47.6979 -123.0210 201° Southwest 226 260 5,100  Level FlightAware ADS-B
08:39PM 47.6934 -123.0230 188° South 231 266 5,100  Level FlightAware ADS-B
08:39PM 47.6891 -123.0230 176° South 234 269 5,100  Level FlightAware ADS-B
08:39PM 47.6853 -123.0210 164° South 236 272 5,100  Level FlightAware ADS-B
08:39PM 47.6821 -123.0190 154° Southeast 238 274 5,100 960 Level FlightAware ADS-B
08:39PM 47.6793 -123.0170 144° Southeast 239 275 5,200 960 Climbing FlightAware ADS-B
08:39PM 47.6766 -123.0130 134° Southeast 242 278 5,200  Level FlightAware ADS-B
08:39PM 47.6744 -123.0080 120° Southeast 244 281 5,200  Level FlightAware ADS-B
08:39PM 47.6731 -123.0020 109° East 247 284 5,200  Level FlightAware ADS-B
08:39PM 47.6725 -122.9970 99° East 249 287 5,200  Level FlightAware ADS-B
08:39PM 47.6726 -122.9910 88° East 250 288 5,200  Level FlightAware ADS-B
08:39PM 47.6736 -122.9850 75° East 251 289 5,200  Level FlightAware ADS-B
08:40PM 47.6754 -122.9790 63° Northeast 252 290 5,200  Level FlightAware ADS-B
08:40PM 47.6781 -122.9740 51° Northeast 254 292 5,200 -720 Level FlightAware ADS-B
08:40PM 47.6824 -122.9680 38° Northeast 258 297 5,100 -540 Descending FlightAware ADS-B
08:40PM 47.6894 -122.9610 36° Northeast 258 297 5,100  Level FlightAware ADS-B
08:40PM 47.7040 -122.9460 35° Northeast 257 296 5,100  Level FlightAware ADS-B
08:40PM 47.7189 -122.9300 34° Northeast 257 296 5,100  Level FlightAware ADS-B
08:40PM 47.7300 -122.9200 33° Northeast 249 287 5,100  Level FlightAware ADS-B
08:41PM 47.7369 -122.9130 33° Northeast 248 285 5,100  Level FlightAware ADS-B
08:41PM 47.7516 -122.8990 33° Northeast 256 295 5,100  Level FlightAware ADS-B
08:41PM 47.7669 -122.8850 32° Northeast 257 296 5,100  Level FlightAware ADS-B
08:41PM 47.7823 -122.8700 32° Northeast 254 292 5,100  Level FlightAware ADS-B
08:42PM 47.7974 -122.8570 31° Northeast 256 295 5,100  Level FlightAware ADS-B
08:42PM 47.8130 -122.8430 31° Northeast 253 291 5,100 -300 Level FlightAware ADS-B
08:42PM 47.8123 -122.8436 32° Northeast 252 290 5,000 -420 Descending FlightAware ADS-B (CYWH)
08:42PM 47.8278 -122.8290 31° Northeast 252 290 5,000  Level FlightAware ADS-B
08:42PM 47.8433 -122.8160 31° Northeast 255 293 5,000  Level FlightAware ADS-B
08:43PM 47.8545 -122.8060 32° Northeast 258 297 5,000  Level FlightAware ADS-B
08:43PM 47.8697 -122.7910 32° Northeast 257 296 5,000 360 Level FlightAware ADS-B
08:43PM 47.8850 -122.7770 33° Northeast 254 292 5,200 600 Climbing FlightAware ADS-B
08:43PM 47.8999 -122.7630 33° Northeast 255 293 5,300 180 Climbing FlightAware ADS-B
08:44PM 47.9152 -122.7480 33° Northeast 261 300 5,300  Level FlightAware ADS-B
08:44PM 47.9195 -122.7440 31° Northeast 261 300 5,300  Level FlightAware ADS-B
08:44PM 47.9239 -122.7410 27° Northeast 262 302 5,300  Level FlightAware ADS-B
08:44PM 47.9287 -122.7390 12° North 263 303 5,300  Level FlightAware ADS-B
08:44PM 47.9326 -122.7390 North 262 302 5,300  Level FlightAware ADS-B
08:44PM 47.9362 -122.7390 350° North 261 300 5,300  Level FlightAware ADS-B
08:44PM 47.9396 -122.7410 339° North 259 298 5,300  Level FlightAware ADS-B
08:44PM 47.9435 -122.7450 324° Northwest 254 292 5,300  Level FlightAware ADS-B
08:44PM 47.9465 -122.7500 311° West 248 285 5,300  Level FlightAware ADS-B
08:44PM 47.9484 -122.7560 296° West 243 280 5,300  Level FlightAware ADS-B
08:44PM 47.9492 -122.7610 282° West 238 274 5,300  Level FlightAware ADS-B
08:44PM 47.9494 -122.7670 272° West 234 269 5,300  Level FlightAware ADS-B
08:44PM 47.9490 -122.7740 263° West 231 266 5,300  Level FlightAware ADS-B
08:44PM 47.9476 -122.7810 252° West 228 262 5,300  Level FlightAware ADS-B
08:44PM 47.9456 -122.7880 243° Southwest 226 260 5,300  Level FlightAware ADS-B
08:45PM 47.9435 -122.7920 234° Southwest 224 258 5,300  Level FlightAware ADS-B
08:45PM 47.9384 -122.8015 230° Southwest 223 257 5,300  Level FlightAware ADS-B (CYVR)
08:45PM 47.9339 -122.8090 230° Southwest 223 257 5,300  Level FlightAware ADS-B
08:45PM 47.9237 -122.8270 229° Southwest 225 259 5,300  Level FlightAware ADS-B
08:45PM 47.9336 -122.8099 229° Southwest 225 259 5,300  Level FlightAware ADS-B (CYVR)
08:45PM 47.9176 -122.8380 229° Southwest 226 260 5,300  Level FlightAware ADS-B
08:45PM 47.9139 -122.8430 221° Southwest 225 259 5,300  Level FlightAware ADS-B
08:45PM 47.9111 -122.8450 211° Southwest 226 260 5,300  Level FlightAware ADS-B
08:45PM 47.9075 -122.8480 201° Southwest 225 259 5,300  Level FlightAware ADS-B
08:45PM 47.9029 -122.8490 190° South 225 259 5,300  Level FlightAware ADS-B
08:45PM 47.8993 -122.8500 180° South 225 259 5,300  Level FlightAware ADS-B
08:46PM 47.8960 -122.8490 173° South 226 260 5,300  Level FlightAware ADS-B
08:46PM 47.8923 -122.8480 166° South 226 260 5,300  Level FlightAware ADS-B
08:46PM 47.8877 -122.8450 154° Southeast 229 264 5,300  Level FlightAware ADS-B
08:46PM 47.8843 -122.8410 144° Southeast 230 265 5,300  Level FlightAware ADS-B
08:46PM 47.8813 -122.8370 135° Southeast 232 267 5,300  Level FlightAware ADS-B
08:46PM 47.8792 -122.8330 128° Southeast 234 269 5,300  Level FlightAware ADS-B
08:46PM 47.8770 -122.8280 119° Southeast 238 274 5,300 720 Level FlightAware ADS-B
08:46PM 47.8753 -122.8220 110° East 241 277 5,400 840 Climbing FlightAware ADS-B
08:46PM 47.8744 -122.8170 104° East 243 280 5,400  Level FlightAware ADS-B
08:46PM 47.8738 -122.8120 98° East 245 282 5,400  Level FlightAware ADS-B
08:46PM 47.8738 -122.8050 89° East 249 287 5,400  Level FlightAware ADS-B
08:46PM 47.8744 -122.7990 80° East 252 290 5,400  Level FlightAware ADS-B
08:46PM 47.8759 -122.7910 71° East 255 293 5,400  Level FlightAware ADS-B
08:46PM 47.8777 -122.7860 62° Northeast 255 293 5,400  Level FlightAware ADS-B
08:46PM 47.8799 -122.7810 56° Northeast 255 293 5,400  Level FlightAware ADS-B
08:46PM 47.8825 -122.7760 47° Northeast 255 293 5,400  Level FlightAware ADS-B
08:47PM 47.8861 -122.7710 41° Northeast 257 296 5,400  Level FlightAware ADS-B
08:47PM 47.8894 -122.7680 32° Northeast 258 297 5,400  Level FlightAware ADS-B
08:47PM 47.8930 -122.7650 26° Northeast 259 298 5,400  Level FlightAware ADS-B
08:47PM 47.8969 -122.7630 20° North 260 299 5,400  Level FlightAware ADS-B
08:47PM 47.9021 -122.7620 North 261 300 5,400  Level FlightAware ADS-B
08:47PM 47.9069 -122.7620 358° North 260 299 5,400  Level FlightAware ADS-B
08:47PM 47.9103 -122.7630 351° North 259 298 5,400  Level FlightAware ADS-B
08:47PM 47.9141 -122.7640 343° North 258 297 5,400  Level FlightAware ADS-B
08:47PM 47.9184 -122.7670 333° Northwest 256 295 5,400  Level FlightAware ADS-B
08:47PM 47.9219 -122.7710 323° Northwest 253 291 5,400  Level FlightAware ADS-B
08:47PM 47.9209 -122.7700 317° Northwest 252 290 5,400  Level FlightAware ADS-B (CYWH)
08:47PM 47.9251 -122.7760 312° West 251 289 5,400  Level FlightAware ADS-B
08:47PM 47.9274 -122.7810 304° West 248 285 5,400  Level FlightAware ADS-B
08:47PM 47.9293 -122.7870 291° West 244 281 5,400  Level FlightAware ADS-B
08:47PM 47.9302 -122.7920 284° West 241 277 5,400  Level FlightAware ADS-B
08:47PM 47.9308 -122.7990 277° West 239 275 5,400  Level FlightAware ADS-B
08:47PM 47.9306 -122.8060 265° West 234 269 5,400  Level FlightAware ADS-B
08:48PM 47.9298 -122.8110 255° West 231 266 5,400  Level FlightAware ADS-B
08:48PM 47.9286 -122.8160 248° West 229 264 5,400  Level FlightAware ADS-B
08:48PM 47.9273 -122.8199 239° Southwest 226 260 5,400  Level FlightAware ADS-B (CYVR)
08:48PM 47.9240 -122.8260 229° Southwest 224 258 5,400  Level FlightAware ADS-B
08:48PM 47.9216 -122.8300 222° Southwest 223 257 5,400  Level FlightAware ADS-B
08:48PM 47.9230 -122.8279 215° Southwest 223 257 5,400  Level FlightAware ADS-B (CYVR)
08:48PM 47.9175 -122.8340 210° Southwest 222 255 5,400  Level FlightAware ADS-B
08:48PM 47.9147 -122.8360 203° Southwest 223 257 5,400  Level FlightAware ADS-B
08:48PM 47.9106 -122.8380 194° South 223 257 5,400  Level FlightAware ADS-B
08:48PM 47.9066 -122.8380 184° South 226 260 5,400  Level FlightAware ADS-B
08:48PM 47.9027 -122.8380 175° South 226 260 5,400  Level FlightAware ADS-B
08:48PM 47.8992 -122.8370 168° South 227 261 5,400  Level FlightAware ADS-B
08:48PM 47.8954 -122.8350 158° South 229 264 5,400  Level FlightAware ADS-B
08:48PM 47.8922 -122.8320 151° Southeast 231 266 5,400  Level FlightAware ADS-B
08:48PM 47.9097 -122.8378 145° Southeast 233 268 5,400  Level FlightAware ADS-B (CYVR)
08:48PM 47.8853 -122.8250 146° Southeast 233 268 5,400  Level FlightAware ADS-B
08:48PM 47.8815 -122.8220 152° Southeast 232 267 5,400  Level FlightAware ADS-B
08:49PM 47.8744 -122.8169 153° Southeast 234 269 5,400 -420 Level FlightAware ADS-B (CYVR)
08:49PM 47.8669 -122.8110 153° Southeast 234 269 5,300 -480 Descending FlightAware ADS-B
08:49PM 47.8565 -122.8030 153° Southeast 232 267 5,300  Level FlightAware ADS-B
08:49PM 47.8437 -122.7930 151° Southeast 235 270 5,300 -300 Level FlightAware ADS-B
08:49PM 47.8338 -122.7850 153° Southeast 274 315 5,200 -480 Descending FlightAware ADS-B
08:49PM 47.8293 -122.7820 158° South 282 325 5,200 840 Level FlightAware ADS-B
08:49PM 47.8247 -122.7810 168° South 281 323 5,300 1,680 Climbing FlightAware ADS-B
08:49PM 47.8200 -122.7810 184° South 271 312 5,400 840 Climbing FlightAware ADS-B
08:50PM 47.8164 -122.7820 196° South 265 305 5,400 -1,020 Level FlightAware ADS-B
08:50PM 47.8132 -122.7850 210° Southwest 262 302 5,300 -2,040 Descending FlightAware ADS-B
08:50PM 47.8105 -122.7890 224° Southwest 262 302 5,200 -1,740 Descending FlightAware ADS-B
08:50PM 47.8081 -122.7950 242° Southwest 264 304 5,100 -1,740 Descending FlightAware ADS-B
08:50PM 47.8068 -122.8010 253° West 266 306 5,000 -900 Descending FlightAware ADS-B
08:50PM 47.8060 -122.8060 259° West 266 306 5,000  Level FlightAware ADS-B
08:50PM 47.8036 -122.8280 261° West 252 290 5,000  Level FlightAware ADS-B
08:50PM 47.8027 -122.8370 263° West 246 283 5,000  Level FlightAware ADS-B
08:50PM 47.8024 -122.8420 267° West 242 278 5,000  Level FlightAware ADS-B
08:50PM 47.8027 -122.8480 276° West 239 275 5,000 960 Level FlightAware ADS-B
08:50PM 47.8035 -122.8520 286° West 237 273 5,100 840 Climbing FlightAware ADS-B
08:50PM 47.8054 -122.8580 301° West 234 269 5,100  Level FlightAware ADS-B
08:50PM 47.8083 -122.8630 311° West 235 270 5,100  Level FlightAware ADS-B
08:50PM 47.8113 -122.8670 322° Northwest 240 276 5,100  Level FlightAware ADS-B
08:50PM 47.8153 -122.8700 333° Northwest 248 285 5,100  Level FlightAware ADS-B
08:51PM 47.8197 -122.8720 342° North 255 293 5,100  Level FlightAware ADS-B
08:51PM 47.8237 -122.8730 349° North 262 302 5,100  Level FlightAware ADS-B
08:51PM 47.8274 -122.8740 353° North 266 306 5,100  Level FlightAware ADS-B
08:51PM 47.8346 -122.8751 355° North 272 313 5,100  Level FlightAware ADS-B (CYWH)
08:51PM 47.8463 -122.8770 355° North 277 319 5,100 240 Level FlightAware ADS-B
08:51PM 47.8615 -122.8786 355° North 266 306 5,200 360 Climbing FlightAware ADS-B (CYWH)
08:51PM 47.8646 -122.8790 356° North 263 303 5,200  Level FlightAware ADS-B
08:51PM 47.8726 -122.8800 358° North 257 296 5,200 -540 Level FlightAware ADS-B
08:51PM 47.8792 -122.8800 North 255 293 5,100 -600 Descending FlightAware ADS-B
08:51PM 47.8846 -122.8798 North 255 293 5,100  Level FlightAware ADS-B (CYWH)
08:52PM 47.8973 -122.8790 North 254 292 5,100  Level FlightAware ADS-B
08:52PM 47.9142 -122.8780 North 254 292 5,100  Level FlightAware ADS-B
08:52PM 47.9220 -122.8770 North 255 293 5,100  Level FlightAware ADS-B
08:52PM 47.9259 -122.8770 358° North 255 293 5,100  Level FlightAware ADS-B
08:52PM 47.9297 -122.8780 349° North 256 295 5,100  Level FlightAware ADS-B
08:52PM 47.9335 -122.8800 342° North 257 296 5,100  Level FlightAware ADS-B
08:52PM 47.9342 -122.8805 354° North 256 295 5,100  Level FlightAware ADS-B (CYVR)
08:52PM 47.9377 -122.8830 333° Northwest 256 295 5,100  Level FlightAware ADS-B
08:52PM 47.9415 -122.8870 324° Northwest 252 290 5,100 720 Level FlightAware ADS-B
08:52PM 47.9446 -122.8910 315° West 247 284 5,200 840 Climbing FlightAware ADS-B
08:52PM 47.9469 -122.8950 308° West 244 281 5,200  Level FlightAware ADS-B
08:52PM 47.9492 -122.9000 299° West 243 280 5,200  Level FlightAware ADS-B
08:52PM 47.9498 -122.9022 295° West 242 278 5,200  Level FlightAware ADS-B (CYWH)
08:53PM 47.9506 -122.9050 293° West 242 278 5,200  Level FlightAware ADS-B
08:53PM 47.9517 -122.9100 286° West 239 275 5,200 960 Level FlightAware ADS-B
08:53PM 47.9523 -122.9150 279° West 238 274 5,300 960 Climbing FlightAware ADS-B
08:53PM 47.9506 -122.9049 272° West 236 272 5,300  Level FlightAware ADS-B (CYWH)
08:53PM 47.9524 -122.9210 272° West 236 272 5,300  Level FlightAware ADS-B
08:53PM 47.9520 -122.9270 262° West 234 269 5,300  Level FlightAware ADS-B
08:53PM 47.9508 -122.9330 251° West 233 268 5,300  Level FlightAware ADS-B
08:53PM 47.9495 -122.9370 243° Southwest 231 266 5,300  Level FlightAware ADS-B
08:53PM 47.9471 -122.9420 232° Southwest 229 264 5,300  Level FlightAware ADS-B
08:53PM 47.9441 -122.9460 221° Southwest 228 262 5,300  Level FlightAware ADS-B
08:53PM 47.9409 -122.9490 213° Southwest 227 261 5,300  Level FlightAware ADS-B
08:53PM 47.9375 -122.9520 202° Southwest 225 259 5,300  Level FlightAware ADS-B
08:53PM 47.9334 -122.9530 192° South 226 260 5,300  Level FlightAware ADS-B
08:53PM 47.9295 -122.9530 182° South 226 260 5,300  Level FlightAware ADS-B
08:53PM 47.9261 -122.9530 174° South 227 261 5,300  Level FlightAware ADS-B
08:53PM 47.9222 -122.9520 164° South 228 262 5,300  Level FlightAware ADS-B
08:53PM 47.9195 -122.9501 157° South 228 262 5,300  Level FlightAware ADS-B (CYWH)
08:53PM 47.9163 -122.9470 149° Southeast 230 265 5,300  Level FlightAware ADS-B
08:54PM 47.9114 -122.9410 135° Southeast 233 268 5,300  Level FlightAware ADS-B
08:54PM 47.9093 -122.9370 128° Southeast 234 269 5,300  Level FlightAware ADS-B
08:54PM 47.9073 -122.9320 118° Southeast 237 273 5,300  Level FlightAware ADS-B
08:54PM 47.9064 -122.9291 111° Southeast 240 276 5,300  Level FlightAware ADS-B (CYWH)
08:54PM 47.9057 -122.9260 108° East 240 276 5,300  Level FlightAware ADS-B
08:54PM 47.9047 -122.9190 100° East 242 278 5,300  Level FlightAware ADS-B
08:54PM 47.9045 -122.9120 90° East 244 281 5,300  Level FlightAware ADS-B
08:54PM 47.9046 -122.9108 88° East 245 282 5,300  Level FlightAware ADS-B (CYWH)
08:54PM 47.9051 -122.9060 81° East 247 284 5,300  Level FlightAware ADS-B
08:54PM 47.9061 -122.9000 74° East 249 287 5,300  Level FlightAware ADS-B
08:54PM 47.9078 -122.8950 65° Northeast 249 287 5,300  Level FlightAware ADS-B
08:54PM 47.9096 -122.8900 57° Northeast 250 288 5,300  Level FlightAware ADS-B
08:54PM 47.9118 -122.8860 50° Northeast 252 290 5,300  Level FlightAware ADS-B
08:54PM 47.9143 -122.8820 43° Northeast 255 293 5,300  Level FlightAware ADS-B
08:54PM 47.9183 -122.8780 34° Northeast 256 295 5,300  Level FlightAware ADS-B
08:54PM 47.9228 -122.8750 24° Northeast 258 297 5,300  Level FlightAware ADS-B
08:54PM 47.9265 -122.8730 17° North 259 298 5,300 840 Level FlightAware ADS-B
08:54PM 47.9300 -122.8720 North 259 298 5,400 960 Climbing FlightAware ADS-B
08:54PM 47.9341 -122.8720 North 258 297 5,400  Level FlightAware ADS-B
08:55PM 47.9369 -122.8722 357° North 257 296 5,400  Level FlightAware ADS-B (CYVR)
08:55PM 47.9416 -122.8730 348° North 257 296 5,400  Level FlightAware ADS-B
08:55PM 47.9416 -122.8735 348° North 257 296 5,400  Level FlightAware ADS-B (CYWH)
08:55PM 47.9465 -122.8760 339° North 256 295 5,400  Level FlightAware ADS-B
08:55PM 47.9504 -122.8790 331° Northwest 254 292 5,400  Level FlightAware ADS-B
08:55PM 47.9535 -122.8830 321° Northwest 249 287 5,400  Level FlightAware ADS-B
08:55PM 47.9564 -122.8870 314° West 246 283 5,400 -900 Level FlightAware ADS-B
08:55PM 47.9588 -122.8920 304° West 244 281 5,300 -1,500 Descending FlightAware ADS-B
08:55PM 47.9595 -122.8939 300° West 243 280 5,300  Level FlightAware ADS-B (CYWH)
08:55PM 47.9608 -122.8980 295° West 241 277 5,300  Level FlightAware ADS-B
08:55PM 47.9618 -122.9030 287° West 239 275 5,300  Level FlightAware ADS-B
08:55PM 47.9625 -122.9090 277° West 235 270 5,300  Level FlightAware ADS-B
08:55PM 47.9625 -122.9150 267° West 232 267 5,300  Level FlightAware ADS-B
08:55PM 47.9618 -122.9210 257° West 230 265 5,300  Level FlightAware ADS-B
08:55PM 47.9601 -122.9270 246° West 228 262 5,300  Level FlightAware ADS-B
08:55PM 47.9575 -122.9330 236° Southwest 227 261 5,300  Level FlightAware ADS-B
08:55PM 47.9551 -122.9370 225° Southwest 225 259 5,300  Level FlightAware ADS-B
08:55PM 47.9521 -122.9410 214° Southwest 225 259 5,300  Level FlightAware ADS-B
08:56PM 47.9494 -122.9430 206° Southwest 225 259 5,300  Level FlightAware ADS-B
08:56PM 47.9462 -122.9450 198° South 225 259 5,300  Level FlightAware ADS-B
08:56PM 47.9426 -122.9460 190° South 225 259 5,300  Level FlightAware ADS-B
08:56PM 47.9486 -122.9434 187° South 225 259 5,300  Level FlightAware ADS-B (CYWH)
08:56PM 47.9388 -122.9460 179° South 225 259 5,300  Level FlightAware ADS-B
08:56PM 47.9347 -122.9450 169° South 227 261 5,300  Level FlightAware ADS-B
08:56PM 47.9317 -122.9434 161° South 227 261 5,300  Level FlightAware ADS-B (CYWH)
08:56PM 47.9283 -122.9410 151° Southeast 229 264 5,300  Level FlightAware ADS-B
08:56PM 47.9255 -122.9380 143° Southeast 231 266 5,300  Level FlightAware ADS-B
08:56PM 47.9224 -122.9330 133° Southeast 233 268 5,300  Level FlightAware ADS-B
08:56PM 47.9204 -122.9300 125° Southeast 235 270 5,300  Level FlightAware ADS-B
08:56PM 47.9188 -122.9250 118° Southeast 237 273 5,300  Level FlightAware ADS-B
08:56PM 47.9182 -122.9233 110° East 239 275 5,300  Level FlightAware ADS-B (CYWH)
08:56PM 47.9172 -122.9190 108° East 239 275 5,300  Level FlightAware ADS-B
08:56PM 47.9165 -122.9140 100° East 241 277 5,300  Level FlightAware ADS-B
08:56PM 47.9163 -122.9090 93° East 243 280 5,300  Level FlightAware ADS-B
08:56PM 47.9164 -122.9121 86° East 246 283 5,300  Level FlightAware ADS-B (CYWH)
08:56PM 47.9167 -122.9020 83° East 247 284 5,300  Level FlightAware ADS-B
08:56PM 47.9176 -122.8960 74° East 249 287 5,300  Level FlightAware ADS-B
08:56PM 47.9189 -122.8920 67° East 251 289 5,300  Level FlightAware ADS-B
08:57PM 47.9208 -122.8860 59° Northeast 252 290 5,300  Level FlightAware ADS-B
08:57PM 47.9230 -122.8820 52° Northeast 252 290 5,300  Level FlightAware ADS-B
08:57PM 47.9260 -122.8770 43° Northeast 255 293 5,300  Level FlightAware ADS-B
08:57PM 47.9290 -122.8740 36° Northeast 256 295 5,300  Level FlightAware ADS-B
08:57PM 47.9323 -122.8710 29° Northeast 257 296 5,300  Level FlightAware ADS-B
08:57PM 47.9368 -122.8690 19° North 258 297 5,300  Level FlightAware ADS-B
08:57PM 47.9407 -122.8670 10° North 258 297 5,300  Level FlightAware ADS-B
08:57PM 47.9448 -122.8670 North 258 297 5,300  Level FlightAware ADS-B
08:57PM 47.9489 -122.8670 356° North 258 297 5,300  Level FlightAware ADS-B
08:57PM 47.9533 -122.8690 347° North 256 295 5,300  Level FlightAware ADS-B
08:57PM 47.9579 -122.8710 338° Northwest 253 291 5,300  Level FlightAware ADS-B
08:57PM 47.9613 -122.8740 329° Northwest 250 288 5,300  Level FlightAware ADS-B
08:57PM 47.9653 -122.8790 319° Northwest 247 284 5,300  Level FlightAware ADS-B
08:57PM 47.9680 -122.8830 309° West 246 283 5,300  Level FlightAware ADS-B
08:57PM 47.9703 -122.8890 300° West 244 281 5,300  Level FlightAware ADS-B
08:57PM 47.9718 -122.8940 292° West 242 278 5,300  Level FlightAware ADS-B
08:57PM 47.9639 -122.8768 300° West 244 281 5,300  Level FlightAware ADS-B (CYVR)
08:57PM 47.9730 -122.9010 282° West 238 274 5,300  Level FlightAware ADS-B
08:58PM 47.9732 -122.9080 269° West 233 268 5,300  Level FlightAware ADS-B
08:58PM 47.9725 -122.9140 258° West 230 265 5,300  Level FlightAware ADS-B
08:58PM 47.9714 -122.9190 250° West 228 262 5,300  Level FlightAware ADS-B
08:58PM 47.9691 -122.9250 239° Southwest 226 260 5,300  Level FlightAware ADS-B
08:58PM 47.9669 -122.9290 229° Southwest 224 258 5,300  Level FlightAware ADS-B
08:58PM 47.9637 -122.9330 218° Southwest 222 255 5,300  Level FlightAware ADS-B
08:58PM 47.9601 -122.9360 207° Southwest 223 257 5,300  Level FlightAware ADS-B
08:58PM 47.9570 -122.9380 199° South 223 257 5,300  Level FlightAware ADS-B
08:58PM 47.9535 -122.9390 188° South 224 258 5,300  Level FlightAware ADS-B
08:58PM 47.9511 -122.9392 183° South 224 258 5,300  Level FlightAware ADS-B (CYWH)
08:58PM 47.9500 -122.9390 181° South 225 259 5,300  Level FlightAware ADS-B
08:58PM 47.9469 -122.9390 173° South 226 260 5,300  Level FlightAware ADS-B
08:58PM 47.9436 -122.9370 165° South 227 261 5,300  Level FlightAware ADS-B
08:58PM 47.9411 -122.9360 157° South 227 261 5,300  Level FlightAware ADS-B (CYWH)
08:58PM 47.9375 -122.9330 146° Southeast 230 265 5,300  Level FlightAware ADS-B
08:58PM 47.9342 -122.9280 135° Southeast 232 267 5,300  Level FlightAware ADS-B
08:58PM 47.9331 -122.9262 129° Southeast 233 268 5,300  Level FlightAware ADS-B (CYWH)
08:58PM 47.9316 -122.9230 124° Southeast 234 269 5,300  Level FlightAware ADS-B
08:59PM 47.9300 -122.9180 116° Southeast 237 273 5,300  Level FlightAware ADS-B
08:59PM 47.9288 -122.9130 105° East 239 275 5,300  Level FlightAware ADS-B
08:59PM 47.9283 -122.9070 97° East 243 280 5,300  Level FlightAware ADS-B
08:59PM 47.9283 -122.9020 89° East 245 282 5,300  Level FlightAware ADS-B
08:59PM 47.9283 -122.9021 78° East 248 285 5,300  Level FlightAware ADS-B (CYWH)
08:59PM 47.9306 -122.8900 67° East 251 289 5,300  Level FlightAware ADS-B
08:59PM 47.9329 -122.8840 56° Northeast 253 291 5,300  Level FlightAware ADS-B
08:59PM 47.9352 -122.8800 49° Northeast 255 293 5,300  Level FlightAware ADS-B
08:59PM 47.9389 -122.8750 39° Northeast 257 296 5,300  Level FlightAware ADS-B
08:59PM 47.9430 -122.8710 28° Northeast 258 297 5,300  Level FlightAware ADS-B
08:59PM 47.9468 -122.8690 21° North 259 298 5,300  Level FlightAware ADS-B
08:59PM 47.9505 -122.8680 13° North 258 297 5,300  Level FlightAware ADS-B
08:59PM 47.9561 -122.8660 12° North 258 297 5,300  Level FlightAware ADS-B (CYWH)
08:59PM 47.9678 -122.8630 North 255 293 5,300  Level FlightAware ADS-B
08:59PM 47.9711 -122.8622 North 256 295 5,300  Level FlightAware ADS-B (CYVR)
09:00PM 47.9802 -122.8600 North 257 296 5,300  Level FlightAware ADS-B
09:00PM 47.9899 -122.8583 North 258 297 5,300  Level FlightAware ADS-B (CYVR)
09:00PM 48.0096 -122.8550 North 257 296 5,300  Level FlightAware ADS-B
09:00PM 48.0187 -122.8543 North 260 299 5,300  Level FlightAware ADS-B (CYVR)
09:00PM 48.0254 -122.8540 North 259 298 5,300  Level FlightAware ADS-B
09:00PM 48.0357 -122.8526 North 258 297 5,300  Level FlightAware ADS-B (CYWH)
09:00PM 48.0433 -122.8520 North 258 297 5,300  Level FlightAware ADS-B
09:01PM 48.0595 -122.8510 North 257 296 5,300  Level FlightAware ADS-B
09:01PM 48.0730 -122.8500 North 257 296 5,300  Level FlightAware ADS-B
09:01PM 48.0818 -122.8503 North 255 293 5,300  Level FlightAware ADS-B (CYWH)
09:01PM 48.0858 -122.8500 360° North 255 293 5,300  Level FlightAware ADS-B
09:01PM 48.0938 -122.8505 359° North 254 292 5,300  Level FlightAware ADS-B (CYWH)
09:01PM 48.0996 -122.8510 358° North 253 291 5,300  Level FlightAware ADS-B
09:02PM 48.1173 -122.8517 357° North 250 288 5,300  Level FlightAware ADS-B (CYWH)
09:02PM 48.1341 -122.8530 357° North 248 285 5,300  Level FlightAware ADS-B
09:02PM 48.1410 -122.8538 356° North 248 285 5,300  Level FlightAware ADS-B (CYVR)
09:02PM 48.1472 -122.8540 356° North 248 285 5,300  Level FlightAware ADS-B
09:02PM 48.1656 -122.8570 354° North 246 283 5,300 -240 Level FlightAware ADS-B
09:02PM 48.1834 -122.8600 353° North 246 283 5,200 -300 Descending FlightAware ADS-B
09:03PM 48.1839 -122.8599 353° North 245 282 5,200  Level FlightAware ADS-B (CYWH)
09:03PM 48.2010 -122.8630 353° North 245 282 5,200  Level FlightAware ADS-B
09:03PM 48.2107 -122.8647 353° North 246 283 5,200  Level FlightAware ADS-B (CYWH)
09:03PM 48.2190 -122.8660 353° North 247 284 5,200 -300 Level FlightAware ADS-B
09:03PM 48.2233 -122.8672 352° North 247 284 5,100 -420 Descending FlightAware ADS-B (CYWH)
09:03PM 48.2367 -122.8700 352° North 246 283 5,100  Level FlightAware ADS-B
09:03PM 48.2498 -122.8730 353° North 246 283 5,100  Level FlightAware ADS-B
09:04PM 48.2561 -122.8733 358° North 249 287 5,100  Level FlightAware ADS-B (CYWH)
09:04PM 48.2580 -122.8730 358° North 249 287 5,100  Level FlightAware ADS-B
09:04PM 48.2614 -122.8730 North 251 289 5,100  Level FlightAware ADS-B
09:04PM 48.2656 -122.8720 10° North 254 292 5,100  Level FlightAware ADS-B
09:04PM 48.2663 -122.8718 17° North 255 293 5,100  Level FlightAware ADS-B (CYWH)
09:04PM 48.2692 -122.8700 17° North 255 293 5,100  Level FlightAware ADS-B
09:04PM 48.2767 -122.8660 24° Northeast 256 295 5,100  Level FlightAware ADS-B
09:04PM 48.2767 -122.8657 27° Northeast 257 296 5,100  Level FlightAware ADS-B (CYWH)
09:04PM 48.2819 -122.8620 29° Northeast 257 296 5,100 -600 Level FlightAware ADS-B
09:04PM 48.2893 -122.8540 37° Northeast 253 291 5,000  Descending FlightAware ADS-B (CYWH)
09:04PM 48.2900 -122.8530 37° Northeast 253 291 5,100  Climbing FlightAware ADS-B
09:04PM 48.2930 -122.8490 40° Northeast 253 291 5,000  Descending FlightAware ADS-B
09:04PM 48.2961 -122.8450 45° Northeast 251 289 5,100 960 Climbing FlightAware ADS-B
09:04PM 48.2974 -122.8422 50° Northeast 248 285 5,100  Level FlightAware ADS-B (CYWH)
09:04PM 48.2990 -122.8390 54° Northeast 246 283 5,100  Level FlightAware ADS-B
09:04PM 48.3013 -122.8330 61° Northeast 244 281 5,100  Level FlightAware ADS-B
09:04PM 48.3032 -122.8270 67° East 246 283 5,100  Level FlightAware ADS-B
09:04PM 48.3050 -122.8190 71° East 251 289 5,100  Level FlightAware ADS-B
09:05PM 48.3062 -122.8114 78° East 257 296 5,100  Level FlightAware ADS-B (CYWH)
09:05PM 48.3069 -122.8050 78° East 257 296 5,100  Level FlightAware ADS-B
09:05PM 48.3071 -122.8029 83° East 258 297 5,100  Level FlightAware ADS-B (CYVR)
09:05PM 48.3081 -122.7820 86° East 256 295 5,100  Level FlightAware ADS-B
09:05PM 48.3084 -122.7760 86° East 257 296 5,100  Level FlightAware ADS-B (CYWH)
09:05PM 48.3094 -122.7507 88° East 262 302 5,100 180 Level FlightAware ADS-B (CYVR)
09:05PM 48.3102 -122.7234 88° East 257 296 5,200 480 Climbing FlightAware ADS-B (CYWH)
09:06PM 48.3106 -122.7080 87° East 258 297 5,300 360 Climbing FlightAware ADS-B
09:06PM 48.3108 -122.6985 89° East 255 293 5,300 480 Level FlightAware ADS-B (CYVR)
09:06PM 48.3110 -122.6650 90° East 251 289 5,500 600 Climbing FlightAware ADS-B
09:06PM 48.3110 -122.6611 90° East 245 282 5,500 300 Level FlightAware ADS-B (CYVR)
09:06PM 48.3106 -122.6348 92° East 242 278 5,600 300 Climbing FlightAware ADS-B (CYWH)
09:06PM 48.3105 -122.6310 92° East 242 278 5,600 -240 Level FlightAware ADS-B
09:07PM 48.3099 -122.5912 92° East 245 282 5,500 -420 Descending FlightAware ADS-B (CYVR)
09:07PM 48.3096 -122.5827 93° East 245 282 5,400 180 Descending FlightAware ADS-B (CYVR)
09:07PM 48.3076 -122.5443 96° East 245 282 5,600 120 Climbing FlightAware ADS-B (CYWH)
09:07PM 48.3053 -122.5102 96° East 245 282 5,500 -180 Descending FlightAware ADS-B (CYWH)
09:08PM 48.3029 -122.4832 99° East 250 288 5,500 120 Level FlightAware ADS-B (CYVR)
09:08PM 48.2993 -122.4473 98° East 240 276 5,600 180 Climbing FlightAware ADS-B (CYVR)
09:08PM 48.2977 -122.4341 97° East 252 290 5,600 -300 Level FlightAware ADS-B (CYVR)
09:08PM 48.2959 -122.4142 104° East 248 285 5,500 -360 Descending FlightAware ADS-B (CYVR)
09:09PM 48.2951 -122.4099 94° East 248 285 5,500 -180 Level FlightAware ADS-B (CYWH)
09:09PM 48.2887 -122.3504 106° East 252 290 5,400  Descending FlightAware ADS-B (CYWH)
09:09PM 48.2865 -122.3373 126° Southeast 244 281 5,500 240 Climbing FlightAware ADS-B (CYWH)
09:10PM 48.2648 -122.2917 159° South 229 264 5,600 360 Climbing FlightAware ADS-B (CYWH)
09:10PM 48.2521 -122.2866 173° South 233 268 5,700 300 Climbing FlightAware ADS-B (CYWH)
09:10PM 48.2414 -122.2865 185° South 231 266 5,700  Level FlightAware ADS-B (CYWH)
09:11PM 48.2010 -122.2955 191° South 235 270 5,700 -120 Level FlightAware ADS-B (CYWH)
09:11PM 48.1748 -122.3038 193° South 239 275 5,600 -180 Descending FlightAware ADS-B (CYWH)
09:12PM 48.1569 -122.3104 195° South 241 277 5,600  Level FlightAware ADS-B (CYWH)
09:12PM 48.1526 -122.3121 195° South 237 273 5,600  Level FlightAware ADS-B (CYVR)
09:12PM 48.1037 -122.3323 195° South 239 275 5,600  Level FlightAware ADS-B (CYWH)
09:13PM 48.0994 -122.3341 188° South 237 273 5,600 -120 Level FlightAware ADS-B (CYWH)
09:13PM 48.0484 -122.3441 174° South 240 276 5,500  Descending FlightAware ADS-B (CYVR)
09:14PM 48.0158 -122.3383 172° South 242 278 5,600 60 Climbing FlightAware ADS-B (CYWH)
09:14PM 47.9862 -122.3316 170° South 246 283 5,600  Level FlightAware ADS-B (CYWH)
09:14PM 47.9675 -122.3280 174° South 251 289 5,600 120 Level FlightAware ADS-B
09:15PM 47.9394 -122.3260 176° South 256 295 5,700 180 Climbing FlightAware ADS-B
09:15PM 47.9366 -122.3256 178° South 251 289 5,700  Level FlightAware ADS-B
09:15PM 47.9272 -122.3250 176° South 249 287 5,700 -360 Level FlightAware ADS-B
09:15PM 47.9144 -122.3240 177° South 247 284 5,600 -480 Descending FlightAware ADS-B
09:15PM 47.9125 -122.3234 178° South 247 284 5,600 360 Level FlightAware ADS-B
09:15PM 47.8968 -122.3220 177° South 254 292 5,700  Climbing FlightAware ADS-B
09:16PM 47.8790 -122.3210 177° South 271 312 5,600 -720 Descending FlightAware ADS-B
09:16PM 47.8751 -122.3200 178° South 269 310 5,500 -1,200 Descending FlightAware ADS-B
09:16PM 47.8751 -122.3204 179° South 268 308 5,500  Level FlightAware ADS-B
09:16PM 47.8679 -122.3210 184° South 264 304 5,500  Level FlightAware ADS-B
09:16PM 47.8606 -122.3230 193° South 257 296 5,500 -600 Level FlightAware ADS-B
09:16PM 47.8570 -122.3240 196° South 255 293 5,400 -1,020 Descending FlightAware ADS-B
09:16PM 47.8537 -122.3260 200° South 254 292 5,400  Level FlightAware ADS-B
09:16PM 47.8504 -122.3280 204° Southwest 252 290 5,400 -780 Level FlightAware ADS-B
09:16PM 47.8451 -122.3320 209° Southwest 249 287 5,300 -780 Descending FlightAware ADS-B
09:16PM 47.8416 -122.3350 211° Southwest 247 284 5,300 -960 Level FlightAware ADS-B
09:16PM 47.8325 -122.3450 217° Southwest 243 280 5,100 -1,020 Descending FlightAware ADS-B
09:16PM 47.8313 -122.3461 218° Southwest 243 280 5,100 -1,020 Level FlightAware ADS-B
09:16PM 47.8274 -122.3510 220° Southwest 243 280 5,000 -1,440 Descending FlightAware ADS-B
09:17PM 47.8200 -122.3610 224° Southwest 243 280 4,800 -1,320 Descending FlightAware ADS-B
09:17PM 47.8164 -122.3660 226° Southwest 244 281 4,700 -1,500 Descending FlightAware ADS-B
09:17PM 47.8079 -122.3810 232° Southwest 245 282 4,400 -1,740 Descending FlightAware ADS-B
09:17PM 47.8059 -122.3850 234° Southwest 245 282 4,300 -1,320 Descending FlightAware ADS-B
09:17PM 47.7993 -122.4000 238° Southwest 244 281 4,100 -1,200 Descending FlightAware ADS-B
09:17PM 47.7938 -122.4134 240° Southwest 245 282 3,900 -1,440 Descending FlightAware ADS-B
09:17PM 47.7892 -122.4250 240° Southwest 244 281 3,700 -1,620 Descending FlightAware ADS-B
09:18PM 47.7856 -122.4346 242° Southwest 243 280 3,400 -900 Descending FlightAware ADS-B
09:18PM 47.7792 -122.4540 245° Southwest 239 275 3,400 -300 Level FlightAware ADS-B
09:18PM 47.7732 -122.4690 236° Southwest 228 262 3,300 -720 Descending FlightAware ADS-B
09:18PM 47.7691 -122.4760 226° Southwest 221 254 3,200 -600 Descending FlightAware ADS-B
09:18PM 47.7663 -122.4800 220° Southwest 218 251 3,200  Level FlightAware ADS-B
09:18PM 47.7598 -122.4860 213° Southwest 214 246 3,200 -420 Level FlightAware ADS-B
09:18PM 47.7532 -122.4930 214° Southwest 206 237 3,100 -1,020 Descending FlightAware ADS-B
09:18PM 47.7500 -122.4960 218° Southwest 201 231 3,000 -480 Descending FlightAware ADS-B
09:18PM 47.7439 -122.5040 222° Southwest 193 222 3,000 -300 Level FlightAware ADS-B
09:19PM 47.7366 -122.5140 222° Southwest 183 211 2,900 -240 Descending FlightAware ADS-B
09:19PM 47.7233 -122.5300 220° Southwest 179 206 2,900 -240 Level FlightAware ADS-B
09:20PM 47.6965 -122.5330 185° South 182 209 2,700 -420 Descending FlightAware ADS-B
09:20PM 47.6905 -122.5230 145° Southeast 193 222 2,600 -960 Descending FlightAware ADS-B
09:20PM 47.6892 -122.5190 116° Southeast 204 235 2,500 -1,020 Descending FlightAware ADS-B
09:20PM 47.6884 -122.5150 105° East 207 238 2,500  Level FlightAware ADS-B
09:20PM 47.6879 -122.5100 97° East 210 242 2,500 -480 Level FlightAware ADS-B
09:20PM 47.6890 -122.4960 85° East 213 245 2,400 -960 Descending FlightAware ADS-B
09:20PM 47.6901 -122.4920 69° East 217 250 2,300 -780 Descending FlightAware ADS-B
09:20PM 47.6932 -122.4850 55° Northeast 220 253 2,300 -480 Level FlightAware ADS-B
09:21PM 47.7077 -122.4650 47° Northeast 219 252 2,100 -360 Descending FlightAware ADS-B
09:22PM 47.6785 -122.4228 157° South 164 189 1,800 -300 Descending FlightAware ADS-B
09:22PM 47.6615 -122.4120 47° Northeast 219 252 1,700 -180 Descending FlightAware ADS-B
09:22PM 47.6481 -122.4020 154° Southeast 144 166 1,700  Level FlightAware ADS-B
09:23PM 47.6484 -122.4025 152° Southeast 140 161 1,700  Level FlightAware ADS-B
09:23PM 47.6410 -122.3960 149° Southeast 139 160 1,700  Level FlightAware ADS-B
09:23PM 47.6323 -122.3890 149° Southeast 140 161 1,700  Level FlightAware ADS-B
09:23PM 47.6276 -122.3842 148° Southeast 139 160 1,700 -300 Level FlightAware ADS-B
09:23PM 47.6210 -122.3780 148° Southeast 140 161 1,600 -300 Descending FlightAware ADS-B
09:23PM 47.6165 -122.3742 149° Southeast 139 160 1,600  Level FlightAware ADS-B
09:24PM 47.6079 -122.3670 149° Southeast 139 160 1,600 -300 Level FlightAware ADS-B
09:24PM 47.6059 -122.3652 151° Southeast 140 161 1,500 -720 Descending FlightAware ADS-B
09:24PM 47.6009 -122.3611 152° Southeast 142 163 1,300 -780 Descending FlightAware ADS-B
09:25PM 47.5739 -122.3397 152° Southeast 141 162 800 -780 Descending Seattle Center
09:26PM 47.5397 -122.3111 151° Southeast 141 162 100 -720 Descending Seattle Center